sensor_id;sensor_type;location;lat;lon;timestamp;pressure;altitude;pressure_sealevel;temperature;humidity
23473;BME280;11909;52.516;13.564;2023-11-18T00:00:20;101439.81;;;4.62;100.00
23473;BME280;11909;52.516;13.564;2023-11-18T00:02:48;101434.38;;;4.62;100.00
23473;BME280;11909;52.516;13.564;2023-11-18T00:05:16;101442.69;;;4.67;100.00
23473;BME280;11909;52.516;13.564;2023-11-18T00:07:44;101435.19;;;4.63;100.00
23473;BME280;11909;52.516;13.564;2023-11-18T00:10:13;101448.31;;;4.66;100.00
23473;BME280;11909;52.516;13.564;2023-11-18T00:12:41;101446.22;;;4.68;100.00
23473;BME280;11909;52.516;13.564;2023-11-18T00:15:09;101454.72;;;4.78;100.00
23473;BME280;11909;52.516;13.564;2023-11-18T00:17:38;101460.22;;;4.71;100.00
23473;BME280;11909;52.516;13.564;2023-11-18T00:20:08;101462.06;;;4.71;100.00
23473;BME280;11909;52.516;13.564;2023-11-18T00:22:37;101463.53;;;4.73;100.00
23473;BME280;11909;52.516;13.564;2023-11-18T00:25:06;101460.59;;;4.75;100.00
23473;BME280;11909;52.516;13.564;2023-11-18T00:27:37;101466.25;;;4.73;100.00
23473;BME280;11909;52.516;13.564;2023-11-18T00:30:06;101474.25;;;4.68;100.00
23473;BME280;11909;52.516;13.564;2023-11-18T00:32:35;101476.97;;;4.68;100.00
23473;BME280;11909;52.516;13.564;2023-11-18T00:35:03;101471.13;;;4.65;100.00
23473;BME280;11909;52.516;13.564;2023-11-18T00:37:32;101480.13;;;4.65;100.00
23473;BME280;11909;52.516;13.564;2023-11-18T00:40:00;101481.19;;;4.64;100.00
23473;BME280;11909;52.516;13.564;2023-11-18T00:42:28;101488.50;;;4.64;100.00
23473;BME280;11909;52.516;13.564;2023-11-18T00:44:57;101485.13;;;4.68;100.00
23473;BME280;11909;52.516;13.564;2023-11-18T00:47:25;101493.50;;;4.67;100.00
23473;BME280;11909;52.516;13.564;2023-11-18T00:49:52;101498.97;;;4.60;100.00
23473;BME280;11909;52.516;13.564;2023-11-18T00:52:21;101505.06;;;4.62;100.00
23473;BME280;11909;52.516;13.564;2023-11-18T00:54:49;101503.59;;;4.59;100.00
23473;BME280;11909;52.516;13.564;2023-11-18T00:57:17;101507.78;;;4.62;100.00
23473;BME280;11909;52.516;13.564;2023-11-18T00:59:45;101512.53;;;4.67;100.00
23473;BME280;11909;52.516;13.564;2023-11-18T01:02:14;101526.53;;;4.70;100.00
23473;BME280;11909;52.516;13.564;2023-11-18T01:04:45;101531.72;;;4.72;100.00
23473;BME280;11909;52.516;13.564;2023-11-18T01:07:13;101536.38;;;4.65;100.00
23473;BME280;11909;52.516;13.564;2023-11-18T01:09:40;101539.50;;;4.68;100.00
23473;BME280;11909;52.516;13.564;2023-11-18T01:12:09;101540.56;;;4.67;100.00
23473;BME280;11909;52.516;13.564;2023-11-18T01:14:37;101539.56;;;4.62;100.00
23473;BME280;11909;52.516;13.564;2023-11-18T01:17:06;101544.22;;;4.54;100.00
23473;BME280;11909;52.516;13.564;2023-11-18T01:19:37;101533.91;;;4.63;100.00
23473;BME280;11909;52.516;13.564;2023-11-18T01:22:04;101541.66;;;4.59;100.00
23473;BME280;11909;52.516;13.564;2023-11-18T01:24:33;101541.09;;;4.51;100.00
23473;BME280;11909;52.516;13.564;2023-11-18T01:27:01;101541.50;;;4.54;100.00
23473;BME280;11909;52.516;13.564;2023-11-18T01:29:29;101552.75;;;4.58;100.00
23473;BME280;11909;52.516;13.564;2023-11-18T01:31:58;101545.00;;;4.62;100.00
23473;BME280;11909;52.516;13.564;2023-11-18T01:34:26;101550.25;;;4.56;100.00
23473;BME280;11909;52.516;13.564;2023-11-18T01:36:56;101552.38;;;4.54;100.00
23473;BME280;11909;52.516;13.564;2023-11-18T01:39:25;101547.31;;;4.58;100.00
23473;BME280;11909;52.516;13.564;2023-11-18T01:41:53;101547.75;;;4.55;100.00
23473;BME280;11909;52.516;13.564;2023-11-18T01:44:29;101555.47;;;4.58;100.00
23473;BME280;11909;52.516;13.564;2023-11-18T01:46:57;101558.38;;;4.63;100.00
23473;BME280;11909;52.516;13.564;2023-11-18T01:49:27;101557.09;;;4.66;100.00
23473;BME280;11909;52.516;13.564;2023-11-18T01:51:56;101562.75;;;4.64;100.00
23473;BME280;11909;52.516;13.564;2023-11-18T01:54:26;101554.47;;;4.52;100.00
23473;BME280;11909;52.516;13.564;2023-11-18T01:56:55;101568.63;;;4.61;100.00
23473;BME280;11909;52.516;13.564;2023-11-18T01:59:23;101564.69;;;4.57;100.00
23473;BME280;11909;52.516;13.564;2023-11-18T02:01:52;101562.81;;;4.57;100.00
23473;BME280;11909;52.516;13.564;2023-11-18T02:04:25;101561.91;;;4.64;100.00
23473;BME280;11909;52.516;13.564;2023-11-18T02:06:56;101577.41;;;4.63;100.00
23473;BME280;11909;52.516;13.564;2023-11-18T02:09:25;101575.38;;;4.52;100.00
23473;BME280;11909;52.516;13.564;2023-11-18T02:11:56;101577.03;;;4.53;100.00
23473;BME280;11909;52.516;13.564;2023-11-18T02:14:28;101582.47;;;4.53;100.00
23473;BME280;11909;52.516;13.564;2023-11-18T02:16:59;101575.63;;;4.50;100.00
23473;BME280;11909;52.516;13.564;2023-11-18T02:19:30;101580.38;;;4.55;100.00
23473;BME280;11909;52.516;13.564;2023-11-18T02:22:01;101576.84;;;4.54;100.00
23473;BME280;11909;52.516;13.564;2023-11-18T02:24:31;101584.75;;;4.56;100.00
23473;BME280;11909;52.516;13.564;2023-11-18T02:27:05;101586.88;;;4.54;100.00
23473;BME280;11909;52.516;13.564;2023-11-18T02:29:34;101591.41;;;4.60;100.00
23473;BME280;11909;52.516;13.564;2023-11-18T02:32:11;101598.78;;;4.53;100.00
23473;BME280;11909;52.516;13.564;2023-11-18T02:34:56;101591.09;;;4.50;100.00
23473;BME280;11909;52.516;13.564;2023-11-18T02:37:26;101590.00;;;4.57;100.00
23473;BME280;11909;52.516;13.564;2023-11-18T02:40:01;101594.13;;;4.60;100.00
23473;BME280;11909;52.516;13.564;2023-11-18T02:42:36;101595.81;;;4.61;100.00
23473;BME280;11909;52.516;13.564;2023-11-18T02:45:07;101592.22;;;4.67;100.00
23473;BME280;11909;52.516;13.564;2023-11-18T02:47:39;101598.53;;;4.61;100.00
23473;BME280;11909;52.516;13.564;2023-11-18T02:50:08;101591.50;;;4.53;100.00
23473;BME280;11909;52.516;13.564;2023-11-18T02:52:37;101591.50;;;4.53;100.00
23473;BME280;11909;52.516;13.564;2023-11-18T02:55:06;101596.22;;;4.65;100.00
23473;BME280;11909;52.516;13.564;2023-11-18T02:57:37;101597.09;;;4.58;100.00
23473;BME280;11909;52.516;13.564;2023-11-18T03:00:06;101599.41;;;4.55;100.00
23473;BME280;11909;52.516;13.564;2023-11-18T03:02:49;101597.78;;;4.47;100.00
23473;BME280;11909;52.516;13.564;2023-11-18T03:05:18;101587.31;;;4.51;100.00
23473;BME280;11909;52.516;13.564;2023-11-18T03:07:48;101596.69;;;4.55;100.00
23473;BME280;11909;52.516;13.564;2023-11-18T03:10:18;101597.28;;;4.57;100.00
23473;BME280;11909;52.516;13.564;2023-11-18T03:12:51;101593.34;;;4.53;100.00
23473;BME280;11909;52.516;13.564;2023-11-18T03:15:20;101592.72;;;4.57;100.00
23473;BME280;11909;52.516;13.564;2023-11-18T03:17:49;101595.44;;;4.57;100.00
23473;BME280;11909;52.516;13.564;2023-11-18T03:20:19;101602.56;;;4.52;100.00
23473;BME280;11909;52.516;13.564;2023-11-18T03:22:47;101596.25;;;4.58;100.00
23473;BME280;11909;52.516;13.564;2023-11-18T03:25:17;101593.81;;;4.50;100.00
23473;BME280;11909;52.516;13.564;2023-11-18T03:27:45;101595.25;;;4.52;100.00
23473;BME280;11909;52.516;13.564;2023-11-18T03:30:15;101598.16;;;4.57;100.00
23473;BME280;11909;52.516;13.564;2023-11-18T03:32:43;101602.28;;;4.60;100.00
23473;BME280;11909;52.516;13.564;2023-11-18T03:35:12;101603.97;;;4.61;100.00
23473;BME280;11909;52.516;13.564;2023-11-18T03:37:40;101611.44;;;4.72;100.00
23473;BME280;11909;52.516;13.564;2023-11-18T03:40:12;101609.81;;;4.65;100.00
23473;BME280;11909;52.516;13.564;2023-11-18T03:42:41;101607.53;;;4.62;100.00
23473;BME280;11909;52.516;13.564;2023-11-18T03:45:10;101620.91;;;4.63;100.00
23473;BME280;11909;52.516;13.564;2023-11-18T03:47:39;101621.31;;;4.60;100.00
23473;BME280;11909;52.516;13.564;2023-11-18T03:50:08;101614.00;;;4.61;100.00
23473;BME280;11909;52.516;13.564;2023-11-18T03:52:37;101616.94;;;4.59;100.00
23473;BME280;11909;52.516;13.564;2023-11-18T03:55:06;101618.84;;;4.58;100.00
23473;BME280;11909;52.516;13.564;2023-11-18T03:57:34;101624.03;;;4.60;100.00
23473;BME280;11909;52.516;13.564;2023-11-18T04:00:02;101619.91;;;4.57;100.00
23473;BME280;11909;52.516;13.564;2023-11-18T04:02:31;101619.25;;;4.62;100.00
23473;BME280;11909;52.516;13.564;2023-11-18T04:05:02;101624.25;;;4.65;100.00
23473;BME280;11909;52.516;13.564;2023-11-18T04:07:31;101623.63;;;4.63;100.00
23473;BME280;11909;52.516;13.564;2023-11-18T04:09:59;101623.84;;;4.62;100.00
23473;BME280;11909;52.516;13.564;2023-11-18T04:12:27;101616.56;;;4.55;100.00
23473;BME280;11909;52.516;13.564;2023-11-18T04:14:57;101627.03;;;4.52;100.00
23473;BME280;11909;52.516;13.564;2023-11-18T04:17:25;101626.22;;;4.51;100.00
23473;BME280;11909;52.516;13.564;2023-11-18T04:19:55;101626.59;;;4.55;100.00
23473;BME280;11909;52.516;13.564;2023-11-18T04:22:24;101632.25;;;4.53;100.00
23473;BME280;11909;52.516;13.564;2023-11-18T04:24:52;101636.41;;;4.56;100.00
23473;BME280;11909;52.516;13.564;2023-11-18T04:27:20;101636.59;;;4.61;100.00
23473;BME280;11909;52.516;13.564;2023-11-18T04:29:48;101631.22;;;4.54;100.00
23473;BME280;11909;52.516;13.564;2023-11-18T04:32:16;101632.25;;;4.53;100.00
23473;BME280;11909;52.516;13.564;2023-11-18T04:34:44;101633.94;;;4.54;100.00
23473;BME280;11909;52.516;13.564;2023-11-18T04:37:12;101646.25;;;4.57;100.00
23473;BME280;11909;52.516;13.564;2023-11-18T04:39:41;101647.69;;;4.59;100.00
23473;BME280;11909;52.516;13.564;2023-11-18T04:42:09;101654.66;;;4.49;100.00
23473;BME280;11909;52.516;13.564;2023-11-18T04:44:37;101659.88;;;4.50;100.00
23473;BME280;11909;52.516;13.564;2023-11-18T04:47:05;101659.66;;;4.52;100.00
23473;BME280;11909;52.516;13.564;2023-11-18T04:49:33;101659.47;;;4.47;100.00
23473;BME280;11909;52.516;13.564;2023-11-18T04:52:01;101661.97;;;4.48;100.00
23473;BME280;11909;52.516;13.564;2023-11-18T04:54:29;101660.53;;;4.45;100.00
23473;BME280;11909;52.516;13.564;2023-11-18T04:56:59;101658.63;;;4.46;100.00
23473;BME280;11909;52.516;13.564;2023-11-18T04:59:27;101661.56;;;4.51;100.00
23473;BME280;11909;52.516;13.564;2023-11-18T05:01:55;101666.59;;;4.48;100.00
23473;BME280;11909;52.516;13.564;2023-11-18T05:04:24;101667.63;;;4.47;100.00
23473;BME280;11909;52.516;13.564;2023-11-18T05:06:52;101668.44;;;4.47;100.00
23473;BME280;11909;52.516;13.564;2023-11-18T05:09:20;101667.63;;;4.47;100.00
23473;BME280;11909;52.516;13.564;2023-11-18T05:11:48;101669.31;;;4.48;100.00
23473;BME280;11909;52.516;13.564;2023-11-18T05:14:17;101667.81;;;4.52;100.00
23473;BME280;11909;52.516;13.564;2023-11-18T05:16:46;101671.16;;;4.47;100.00
23473;BME280;11909;52.516;13.564;2023-11-18T05:19:14;101672.84;;;4.48;100.00
23473;BME280;11909;52.516;13.564;2023-11-18T05:21:43;101673.47;;;4.50;100.00
23473;BME280;11909;52.516;13.564;2023-11-18T05:24:15;101665.72;;;4.47;100.00
23473;BME280;11909;52.516;13.564;2023-11-18T05:26:44;101659.88;;;4.50;100.00
23473;BME280;11909;52.516;13.564;2023-11-18T05:29:12;101661.31;;;4.53;100.00
23473;BME280;11909;52.516;13.564;2023-11-18T05:31:44;101665.72;;;4.54;100.00
23473;BME280;11909;52.516;13.564;2023-11-18T05:34:12;101663.63;;;4.49;100.00
23473;BME280;11909;52.516;13.564;2023-11-18T05:36:41;101656.75;;;4.47;100.00
23473;BME280;11909;52.516;13.564;2023-11-18T05:39:08;101657.19;;;4.43;100.00
23473;BME280;11909;52.516;13.564;2023-11-18T05:41:37;101660.13;;;4.42;100.00
23473;BME280;11909;52.516;13.564;2023-11-18T05:44:06;101654.94;;;4.34;100.00
23473;BME280;11909;52.516;13.564;2023-11-18T05:46:35;101654.09;;;4.33;100.00
23473;BME280;11909;52.516;13.564;2023-11-18T05:49:07;101665.63;;;4.28;100.00
23473;BME280;11909;52.516;13.564;2023-11-18T05:51:35;101665.22;;;4.25;100.00
23473;BME280;11909;52.516;13.564;2023-11-18T05:54:03;101663.97;;;4.27;100.00
23473;BME280;11909;52.516;13.564;2023-11-18T05:56:31;101672.72;;;4.29;100.00
23473;BME280;11909;52.516;13.564;2023-11-18T05:59:00;101658.31;;;4.29;100.00
23473;BME280;11909;52.516;13.564;2023-11-18T06:01:29;101654.53;;;4.30;100.00
23473;BME280;11909;52.516;13.564;2023-11-18T06:03:58;101668.09;;;4.37;100.00
23473;BME280;11909;52.516;13.564;2023-11-18T06:06:29;101672.06;;;4.34;100.00
23473;BME280;11909;52.516;13.564;2023-11-18T06:08:58;101672.47;;;4.38;100.00
23473;BME280;11909;52.516;13.564;2023-11-18T06:11:31;101672.28;;;4.39;100.00
23473;BME280;11909;52.516;13.564;2023-11-18T06:13:59;101667.69;;;4.33;100.00
23473;BME280;11909;52.516;13.564;2023-11-18T06:16:27;101674.78;;;4.34;100.00
23473;BME280;11909;52.516;13.564;2023-11-18T06:18:56;101677.50;;;4.34;100.00
23473;BME280;11909;52.516;13.564;2023-11-18T06:21:26;101667.91;;;4.32;100.00
23473;BME280;11909;52.516;13.564;2023-11-18T06:23:59;101674.41;;;4.30;100.00
23473;BME280;11909;52.516;13.564;2023-11-18T06:26:28;101672.72;;;4.29;100.00
23473;BME280;11909;52.516;13.564;2023-11-18T06:28:56;101673.13;;;4.33;100.00
23473;BME280;11909;52.516;13.564;2023-11-18T06:31:24;101678.34;;;4.35;100.00
23473;BME280;11909;52.516;13.564;2023-11-18T06:33:52;101682.31;;;4.32;100.00
23473;BME280;11909;52.516;13.564;2023-11-18T06:36:21;101673.34;;;4.32;100.00
23473;BME280;11909;52.516;13.564;2023-11-18T06:38:51;101678.16;;;4.29;100.00
23473;BME280;11909;52.516;13.564;2023-11-18T06:41:22;101680.28;;;4.27;100.00
23473;BME280;11909;52.516;13.564;2023-11-18T06:43:53;101696.78;;;4.26;100.00
23473;BME280;11909;52.516;13.564;2023-11-18T06:46:29;101691.34;;;4.26;100.00
23473;BME280;11909;52.516;13.564;2023-11-18T06:49:01;101698.66;;;4.25;100.00
23473;BME280;11909;52.516;13.564;2023-11-18T06:51:32;101703.25;;;4.25;100.00
23473;BME280;11909;52.516;13.564;2023-11-18T06:54:04;101705.38;;;4.23;100.00
23473;BME280;11909;52.516;13.564;2023-11-18T06:56:38;101717.66;;;4.25;100.00
23473;BME280;11909;52.516;13.564;2023-11-18T06:59:08;101719.78;;;4.23;100.00
23473;BME280;11909;52.516;13.564;2023-11-18T07:01:36;101727.53;;;4.20;100.00
23473;BME280;11909;52.516;13.564;2023-11-18T07:04:07;101718.31;;;4.21;100.00
23473;BME280;11909;52.516;13.564;2023-11-18T07:06:36;101731.69;;;4.22;100.00
23473;BME280;11909;52.516;13.564;2023-11-18T07:09:06;101727.09;;;4.29;100.00
23473;BME280;11909;52.516;13.564;2023-11-18T07:11:37;101727.72;;;4.25;100.00
23473;BME280;11909;52.516;13.564;2023-11-18T07:14:05;101713.69;;;4.28;100.00
23473;BME280;11909;52.516;13.564;2023-11-18T07:16:35;101726.84;;;4.31;100.00
23473;BME280;11909;52.516;13.564;2023-11-18T07:19:05;101719.31;;;4.33;100.00
23473;BME280;11909;52.516;13.564;2023-11-18T07:21:33;101731.03;;;4.40;100.00
23473;BME280;11909;52.516;13.564;2023-11-18T07:24:01;101735.00;;;4.31;100.00
23473;BME280;11909;52.516;13.564;2023-11-18T07:26:30;101734.38;;;4.29;100.00
23473;BME280;11909;52.516;13.564;2023-11-18T07:28:59;101734.63;;;4.27;100.00
23473;BME280;11909;52.516;13.564;2023-11-18T07:31:28;101741.06;;;4.26;100.00
23473;BME280;11909;52.516;13.564;2023-11-18T07:33:56;101732.72;;;4.28;100.00
23473;BME280;11909;52.516;13.564;2023-11-18T07:36:24;101737.97;;;4.29;100.00
23473;BME280;11909;52.516;13.564;2023-11-18T07:38:52;101735.19;;;4.36;100.00
23473;BME280;11909;52.516;13.564;2023-11-18T07:41:21;101744.81;;;4.39;100.00
23473;BME280;11909;52.516;13.564;2023-11-18T07:43:51;101750.88;;;4.34;100.00
23473;BME280;11909;52.516;13.564;2023-11-18T07:46:22;101757.34;;;4.40;100.00
23473;BME280;11909;52.516;13.564;2023-11-18T07:48:51;101755.25;;;4.42;100.00
23473;BME280;11909;52.516;13.564;2023-11-18T07:51:20;101757.78;;;4.43;100.00
23473;BME280;11909;52.516;13.564;2023-11-18T07:53:49;101760.06;;;4.47;100.00
23473;BME280;11909;52.516;13.564;2023-11-18T07:56:16;101770.69;;;4.55;100.00
23473;BME280;11909;52.516;13.564;2023-11-18T07:58:45;101778.25;;;4.46;100.00
23473;BME280;11909;52.516;13.564;2023-11-18T08:01:14;101776.19;;;4.41;100.00
23473;BME280;11909;52.516;13.564;2023-11-18T08:03:44;101776.38;;;4.40;100.00
23473;BME280;11909;52.516;13.564;2023-11-18T08:06:12;101781.19;;;4.38;100.00
23473;BME280;11909;52.516;13.564;2023-11-18T08:08:41;101790.59;;;4.35;100.00
23473;BME280;11909;52.516;13.564;2023-11-18T08:11:10;101785.59;;;4.32;100.00
23473;BME280;11909;52.516;13.564;2023-11-18T08:13:39;101785.59;;;4.32;100.00
23473;BME280;11909;52.516;13.564;2023-11-18T08:16:07;101788.72;;;4.36;100.00
23473;BME280;11909;52.516;13.564;2023-11-18T08:18:36;101797.06;;;4.41;100.00
23473;BME280;11909;52.516;13.564;2023-11-18T08:21:06;101809.19;;;4.45;100.00
23473;BME280;11909;52.516;13.564;2023-11-18T08:23:34;101805.84;;;4.43;100.00
23473;BME280;11909;52.516;13.564;2023-11-18T08:26:03;101802.94;;;4.38;100.00
23473;BME280;11909;52.516;13.564;2023-11-18T08:28:32;101801.69;;;4.34;100.00
23473;BME280;11909;52.516;13.564;2023-11-18T08:31:00;101796.47;;;4.32;100.00
23473;BME280;11909;52.516;13.564;2023-11-18T08:33:28;101796.69;;;4.30;100.00
23473;BME280;11909;52.516;13.564;2023-11-18T08:35:57;101801.28;;;4.30;100.00
23473;BME280;11909;52.516;13.564;2023-11-18T08:38:26;101797.50;;;4.38;100.00
23473;BME280;11909;52.516;13.564;2023-11-18T08:40:54;101800.41;;;4.36;100.00
23473;BME280;11909;52.516;13.564;2023-11-18T08:43:22;101800.03;;;4.39;100.00
23473;BME280;11909;52.516;13.564;2023-11-18T08:45:51;101797.50;;;4.38;100.00
23473;BME280;11909;52.516;13.564;2023-11-18T08:48:19;101788.91;;;4.41;100.00
23473;BME280;11909;52.516;13.564;2023-11-18T08:50:49;101792.50;;;4.41;100.00
23473;BME280;11909;52.516;13.564;2023-11-18T08:53:18;101788.72;;;4.42;100.00
23473;BME280;11909;52.516;13.564;2023-11-18T08:55:54;101791.22;;;4.44;100.00
23473;BME280;11909;52.516;13.564;2023-11-18T08:58:22;101790.16;;;4.45;100.00
23473;BME280;11909;52.516;13.564;2023-11-18T09:00:56;101796.44;;;4.45;100.00
23473;BME280;11909;52.516;13.564;2023-11-18T09:03:32;101790.56;;;4.49;100.00
23473;BME280;11909;52.516;13.564;2023-11-18T09:06:04;101796.00;;;4.49;100.00
23473;BME280;11909;52.516;13.564;2023-11-18T09:08:34;101806.25;;;4.47;100.00
23473;BME280;11909;52.516;13.564;2023-11-18T09:11:08;101814.19;;;4.48;100.00
23473;BME280;11909;52.516;13.564;2023-11-18T09:13:37;101817.13;;;4.47;100.00
23473;BME280;11909;52.516;13.564;2023-11-18T09:16:08;101830.94;;;4.45;100.00
23473;BME280;11909;52.516;13.564;2023-11-18T09:18:37;101835.34;;;4.39;100.00
23473;BME280;11909;52.516;13.564;2023-11-18T09:21:09;101827.81;;;4.41;100.00
23473;BME280;11909;52.516;13.564;2023-11-18T09:23:43;101834.06;;;4.49;100.00
23473;BME280;11909;52.516;13.564;2023-11-18T09:26:13;101849.75;;;4.53;100.00
23473;BME280;11909;52.516;13.564;2023-11-18T09:28:42;101843.66;;;4.58;100.00
23473;BME280;11909;52.516;13.564;2023-11-18T09:31:11;101845.13;;;4.61;100.00
23473;BME280;11909;52.516;13.564;2023-11-18T09:33:40;101844.94;;;4.62;100.00
23473;BME280;11909;52.516;13.564;2023-11-18T09:36:13;101850.75;;;4.66;100.00
23473;BME280;11909;52.516;13.564;2023-11-18T09:38:45;101848.66;;;4.68;100.00
23473;BME280;11909;52.516;13.564;2023-11-18T09:41:16;101846.78;;;4.62;100.00
23473;BME280;11909;52.516;13.564;2023-11-18T09:43:46;101848.25;;;4.64;100.00
23473;BME280;11909;52.516;13.564;2023-11-18T09:46:16;101842.59;;;4.66;100.00
23473;BME280;11909;52.516;13.564;2023-11-18T09:48:46;101846.16;;;4.66;100.00
23473;BME280;11909;52.516;13.564;2023-11-18T09:51:20;101842.81;;;4.64;100.00
23473;BME280;11909;52.516;13.564;2023-11-18T09:53:53;101850.56;;;4.67;100.00
23473;BME280;11909;52.516;13.564;2023-11-18T09:56:31;101847.59;;;4.69;100.00
23473;BME280;11909;52.516;13.564;2023-11-18T09:59:10;101852.22;;;4.68;100.00
23473;BME280;11909;52.516;13.564;2023-11-18T10:01:43;101854.09;;;4.74;100.00
23473;BME280;11909;52.516;13.564;2023-11-18T10:04:13;101865.56;;;4.77;100.00
23473;BME280;11909;52.516;13.564;2023-11-18T10:06:46;101866.63;;;4.76;100.00
23473;BME280;11909;52.516;13.564;2023-11-18T10:09:14;101865.38;;;4.78;100.00
23473;BME280;11909;52.516;13.564;2023-11-18T10:11:56;101863.03;;;4.82;100.00
23473;BME280;11909;52.516;13.564;2023-11-18T10:14:32;101860.53;;;4.87;100.00
23473;BME280;11909;52.516;13.564;2023-11-18T10:17:03;101863.88;;;4.89;100.00
23473;BME280;11909;52.516;13.564;2023-11-18T10:19:52;101858.22;;;4.91;100.00
23473;BME280;11909;52.516;13.564;2023-11-18T10:22:23;101864.69;;;4.90;100.00
23473;BME280;11909;52.516;13.564;2023-11-18T10:24:54;101863.00;;;4.95;100.00
23473;BME280;11909;52.516;13.564;2023-11-18T10:27:27;101861.31;;;5.01;100.00
23473;BME280;11909;52.516;13.564;2023-11-18T10:29:56;101851.06;;;5.03;100.00
23473;BME280;11909;52.516;13.564;2023-11-18T10:32:24;101851.22;;;5.08;100.00
23473;BME280;11909;52.516;13.564;2023-11-18T10:34:55;101855.38;;;5.17;100.00
23473;BME280;11909;52.516;13.564;2023-11-18T10:37:24;101852.44;;;5.19;100.00
23473;BME280;11909;52.516;13.564;2023-11-18T10:39:53;101854.53;;;5.24;100.00
23473;BME280;11909;52.516;13.564;2023-11-18T10:42:21;101865.44;;;5.17;100.00
23473;BME280;11909;52.516;13.564;2023-11-18T10:44:56;101852.84;;;5.23;100.00
23473;BME280;11909;52.516;13.564;2023-11-18T10:47:25;101852.84;;;5.62;100.00
23473;BME280;11909;52.516;13.564;2023-11-18T10:49:54;101863.91;;;5.67;100.00
23473;BME280;11909;52.516;13.564;2023-11-18T10:52:24;101865.94;;;5.78;100.00
23473;BME280;11909;52.516;13.564;2023-11-18T10:54:53;101862.56;;;5.76;100.00
23473;BME280;11909;52.516;13.564;2023-11-18T10:57:23;101875.31;;;5.82;100.00
23473;BME280;11909;52.516;13.564;2023-11-18T10:59:59;101878.97;;;5.69;100.00
23473;BME280;11909;52.516;13.564;2023-11-18T11:02:30;101875.41;;;5.69;100.00
23473;BME280;11909;52.516;13.564;2023-11-18T11:05:02;101874.91;;;5.79;100.00
23473;BME280;11909;52.516;13.564;2023-11-18T11:07:32;101879.59;;;5.71;100.00
23473;BME280;11909;52.516;13.564;2023-11-18T11:10:00;101883.56;;;5.69;100.00
23473;BME280;11909;52.516;13.564;2023-11-18T11:12:33;101876.28;;;5.63;100.00
23473;BME280;11909;52.516;13.564;2023-11-18T11:15:08;101880.88;;;5.62;100.00
23473;BME280;11909;52.516;13.564;2023-11-18T11:17:52;101877.78;;;5.58;100.00
23473;BME280;11909;52.516;13.564;2023-11-18T11:20:22;101884.47;;;5.63;100.00
23473;BME280;11909;52.516;13.564;2023-11-18T11:23:05;101889.94;;;5.56;100.00
23473;BME280;11909;52.516;13.564;2023-11-18T11:25:41;101888.84;;;5.64;100.00
23473;BME280;11909;52.516;13.564;2023-11-18T11:28:16;101886.16;;;5.57;100.00
23473;BME280;11909;52.516;13.564;2023-11-18T11:31:07;101878.44;;;5.54;100.00
23473;BME280;11909;52.516;13.564;2023-11-18T11:33:45;101867.97;;;5.51;100.00
23473;BME280;11909;52.516;13.564;2023-11-18T11:36:18;101870.00;;;5.62;100.00
23473;BME280;11909;52.516;13.564;2023-11-18T11:38:52;101857.09;;;5.51;100.00
23473;BME280;11909;52.516;13.564;2023-11-18T11:41:23;101855.13;;;5.65;100.00
23473;BME280;11909;52.516;13.564;2023-11-18T11:43:53;101855.06;;;5.71;100.00
23473;BME280;11909;52.516;13.564;2023-11-18T11:46:27;101866.78;;;5.72;100.00
23473;BME280;11909;52.516;13.564;2023-11-18T11:49:02;101870.81;;;5.69;100.00
23473;BME280;11909;52.516;13.564;2023-11-18T11:51:46;101861.25;;;5.53;100.00
23473;BME280;11909;52.516;13.564;2023-11-18T11:54:22;101848.78;;;5.39;100.00
23473;BME280;11909;52.516;13.564;2023-11-18T11:56:50;101847.91;;;5.45;100.00
23473;BME280;11909;52.516;13.564;2023-11-18T11:59:35;101841.38;;;5.53;100.00
23473;BME280;11909;52.516;13.564;2023-11-18T12:02:05;101834.13;;;5.40;100.00
23473;BME280;11909;52.516;13.564;2023-11-18T12:04:34;101827.13;;;5.51;100.00
23473;BME280;11909;52.516;13.564;2023-11-18T12:07:04;101821.75;;;5.37;100.00
23473;BME280;11909;52.516;13.564;2023-11-18T12:09:46;101820.50;;;5.40;100.00
23473;BME280;11909;52.516;13.564;2023-11-18T12:12:21;101814.22;;;5.39;100.00
23473;BME280;11909;52.516;13.564;2023-11-18T12:14:54;101815.66;;;5.42;100.00
23473;BME280;11909;52.516;13.564;2023-11-18T12:17:26;101812.22;;;5.53;100.00
23473;BME280;11909;52.516;13.564;2023-11-18T12:19:59;101821.69;;;5.51;100.00
23473;BME280;11909;52.516;13.564;2023-11-18T12:23:02;101817.47;;;5.55;100.00
23473;BME280;11909;52.516;13.564;2023-11-18T12:25:30;101802.31;;;5.66;100.00
23473;BME280;11909;52.516;13.564;2023-11-18T12:28:07;101797.59;;;5.80;100.00
23473;BME280;11909;52.516;13.564;2023-11-18T12:30:39;101793.69;;;5.69;100.00
23473;BME280;11909;52.516;13.564;2023-11-18T12:33:11;101797.81;;;5.78;100.00
23473;BME280;11909;52.516;13.564;2023-11-18T12:42:51;101799.78;;;5.64;100.00
23473;BME280;11909;52.516;13.564;2023-11-18T12:46:04;101782.22;;;5.60;100.00
23473;BME280;11909;52.516;13.564;2023-11-18T12:48:44;101794.88;;;5.54;100.00
23473;BME280;11909;52.516;13.564;2023-11-18T12:51:15;101787.13;;;5.51;100.00
23473;BME280;11909;52.516;13.564;2023-11-18T12:53:49;101789.78;;;5.58;100.00
23473;BME280;11909;52.516;13.564;2023-11-18T12:56:20;101788.09;;;5.64;100.00
23473;BME280;11909;52.516;13.564;2023-11-18T12:58:50;101800.91;;;5.82;100.00
23473;BME280;11909;52.516;13.564;2023-11-18T13:01:18;101800.22;;;5.93;100.00
23473;BME280;11909;52.516;13.564;2023-11-18T13:03:48;101795.41;;;5.88;100.00